עמוד ראשי
METAR-TAF:

METAR-TAF

שדות תעופה :

קשאן, איראן

קו רוחב: 33-59N, קו אורך: 051-27E, גובה: 982מטר

תצפית מזג אוויר נוכחית

הדו"ח נערך לפני 1 שעות ו 0דקות, בשעה 20:00 UTC
רוח 2קשר מכיוון דרום/דרום-מערב
טמפרטורת 31 צלסיוס
לחות 19%
לחץ 1011 hPa
ראות: 5000מטר
עננים פזורים בגובה 4000רגל
עננים בינוניים בגובה 10000רגל
אובך,

METAR: OIFK 132000Z 21002KT 5000 HZ SCT040 BKN100 31/05 Q1011 A2986

זמן: 01:30 (21:00 UTC)


TAF: חסר

תצפיות ותחזיות מזג אוויר לגבי יותר מ- 4,000 שדות תעופה ברחבי העולם. דוחות METAR ו- TAF.

התחנות הזמינות מסומנות בנקודות צהובות ואדומות על גבי המפה.

העבר את העכבר לנקודה הצבעונית על מנת לראות את שם התחנה.

לאחר מכן, לחץ כדי לראות את תוכן ואת תחזיות מזג האוויר.

כדי לשנות את המפה: לחץ על הכפתורים הירוקים עם הפלוס השחור כדי להתקרב; על הכפתור הירוק עם המקף כדי להתרחק; או בחיצים הירוקים למפות סמוכות.


METAR-TAF: